createdAt,value
2023-07-10T00:00:18.048Z,98002.47
2023-07-10T00:02:47.302Z,97994.66
2023-07-10T00:05:14.862Z,97998.88
2023-07-10T00:07:41.810Z,98000.13
2023-07-10T00:10:13.254Z,98000.50
2023-07-10T00:12:40.461Z,97997.13
2023-07-10T00:15:12.886Z,97995.03
2023-07-10T00:17:39.590Z,97997.16
2023-07-10T00:20:13.447Z,97999.97
2023-07-10T00:22:39.992Z,97995.72
2023-07-10T00:25:06.714Z,98001.44
2023-07-10T00:27:33.384Z,97990.94
2023-07-10T00:29:59.904Z,97992.63
2023-07-10T00:32:26.503Z,97986.28
2023-07-10T00:34:53.240Z,97989.22
2023-07-10T00:37:19.744Z,97990.03
2023-07-10T00:39:46.432Z,97992.56
2023-07-10T00:42:19.587Z,97992.78
2023-07-10T00:44:54.774Z,98003.78
2023-07-10T00:47:21.357Z,97994.53
2023-07-10T00:49:50.836Z,97994.31
2023-07-10T00:52:21.673Z,97997.25
2023-07-10T00:54:49.749Z,97996.63
2023-07-10T00:57:19.376Z,98000.41
2023-07-10T00:59:46.142Z,97997.69
2023-07-10T01:02:12.667Z,97991.81
2023-07-10T01:04:41.002Z,97995.13
2023-07-10T01:07:09.199Z,97996.41
2023-07-10T01:09:36.381Z,97996.63
2023-07-10T01:12:04.877Z,97990.94
2023-07-10T01:14:35.836Z,97991.78
2023-07-10T01:17:05.002Z,97986.91
2023-07-10T01:19:31.893Z,97984.44
2023-07-10T01:21:58.539Z,97983.16
2023-07-10T01:24:25.382Z,97992.19
2023-07-10T01:26:54.381Z,97988.00
2023-07-10T01:29:23.925Z,97994.72
2023-07-10T01:31:51.913Z,97989.25
2023-07-10T01:34:19.376Z,97987.56
2023-07-10T01:36:46.817Z,97988.84
2023-07-10T01:39:14.436Z,97982.06
2023-07-10T01:41:42.096Z,97978.31
2023-07-10T01:44:28.828Z,97984.22
2023-07-10T01:46:56.434Z,97988.81
2023-07-10T01:49:25.710Z,97980.81
2023-07-10T01:51:52.745Z,97984.59
2023-07-10T01:54:19.278Z,97987.13
2023-07-10T01:56:46.192Z,97982.91
2023-07-10T01:59:12.818Z,97988.81
2023-07-10T02:01:42.218Z,97990.06
2023-07-10T02:04:09.298Z,97990.06
2023-07-10T02:06:36.950Z,97991.34
2023-07-10T02:09:03.714Z,97987.13
2023-07-10T02:11:30.236Z,97980.38
2023-07-10T02:13:57.132Z,97986.25
2023-07-10T02:16:23.688Z,97980.78
2023-07-10T02:18:50.229Z,97985.03
2023-07-10T02:21:16.796Z,97977.00
2023-07-10T02:23:48.772Z,97979.53
2023-07-10T02:26:16.807Z,97976.16
2023-07-10T02:28:44.046Z,97983.72
2023-07-10T02:31:10.836Z,97982.47
2023-07-10T02:33:37.484Z,97987.06
2023-07-10T02:36:04.516Z,97977.81
2023-07-10T02:38:31.470Z,97979.06
2023-07-10T02:40:59.070Z,97992.13
2023-07-10T02:43:26.966Z,97995.66
2023-07-10T02:45:53.573Z,97993.31
2023-07-10T02:48:20.114Z,97995.44
2023-07-10T02:50:47.472Z,97997.91
2023-07-10T02:53:15.547Z,97996.28
2023-07-10T02:55:43.116Z,97995.25
2023-07-10T02:58:09.815Z,97995.38
2023-07-10T03:00:36.579Z,97991.84
2023-07-10T03:03:03.153Z,97988.28
2023-07-10T03:05:29.764Z,97986.56
2023-07-10T03:07:56.251Z,97980.66
2023-07-10T03:10:22.823Z,97984.09
2023-07-10T03:12:49.390Z,97977.94
2023-07-10T03:15:15.952Z,97975.63
2023-07-10T03:17:43.272Z,97976.53
2023-07-10T03:20:10.943Z,97985.81
2023-07-10T03:22:37.473Z,97983.28
2023-07-10T03:25:04.141Z,97987.50
2023-07-10T03:27:30.961Z,97983.28
2023-07-10T03:29:57.446Z,97975.81
2023-07-10T03:32:23.962Z,97975.97
2023-07-10T03:34:50.952Z,97984.59
2023-07-10T03:37:17.563Z,97977.06
2023-07-10T03:39:44.092Z,97976.75
2023-07-10T03:42:10.908Z,97966.84
2023-07-10T03:44:37.466Z,97965.19
2023-07-10T03:47:04.158Z,97976.56
2023-07-10T03:49:30.762Z,97978.25
2023-07-10T03:51:57.269Z,97972.66
2023-07-10T03:54:23.830Z,97979.75
2023-07-10T03:56:50.282Z,97975.88
2023-07-10T03:59:19.143Z,97973.78
2023-07-10T04:01:45.622Z,97978.19
2023-07-10T04:04:12.122Z,97971.88
2023-07-10T04:06:38.759Z,97976.97
2023-07-10T04:09:05.380Z,97979.91
2023-07-10T04:11:31.884Z,97988.75
2023-07-10T04:13:58.437Z,97983.47
2023-07-10T04:16:29.896Z,97975.28
2023-07-10T04:18:56.762Z,97979.31
2023-07-10T04:21:28.145Z,97984.38
2023-07-10T04:23:55.204Z,97988.81
2023-07-10T04:26:29.101Z,97989.63
2023-07-10T04:28:56.761Z,97992.16
2023-07-10T04:31:24.380Z,98005.47
2023-07-10T04:33:52.083Z,98010.50
2023-07-10T04:36:18.853Z,98012.03
2023-07-10T04:38:45.367Z,98010.78
2023-07-10T04:41:13.240Z,98008.63
2023-07-10T04:43:39.963Z,98001.03
2023-07-10T04:46:07.924Z,98005.28
2023-07-10T04:48:34.729Z,97999.16
2023-07-10T04:51:04.827Z,98001.91
2023-07-10T04:53:32.338Z,98006.91
2023-07-10T04:56:00.724Z,98010.25
2023-07-10T04:58:27.221Z,98016.75
2023-07-10T05:00:54.468Z,98004.53
2023-07-10T05:03:21.135Z,98006.25
2023-07-10T05:05:57.940Z,98003.28
2023-07-10T05:08:25.687Z,98004.06
2023-07-10T05:10:52.831Z,97997.75
2023-07-10T05:13:19.426Z,98000.25
2023-07-10T05:15:46.909Z,97994.69
2023-07-10T05:18:14.146Z,97996.41
2023-07-10T05:20:41.090Z,97992.16
2023-07-10T05:23:08.083Z,97993.66
2023-07-10T05:25:34.596Z,97993.19
2023-07-10T05:28:02.472Z,97995.13
2023-07-10T05:30:29.682Z,97996.44
2023-07-10T05:32:56.281Z,97992.03
2023-07-10T05:35:23.293Z,97993.38
2023-07-10T05:37:49.843Z,97984.88
2023-07-10T05:40:16.463Z,97990.56
2023-07-10T05:42:43.555Z,97984.97
2023-07-10T05:45:10.261Z,97980.34
2023-07-10T05:47:36.750Z,97983.97
2023-07-10T05:50:03.387Z,97991.03
2023-07-10T05:52:29.940Z,97977.69
2023-07-10T05:54:56.436Z,97985.09
2023-07-10T05:57:24.062Z,97984.13
2023-07-10T05:59:50.716Z,97987.00
2023-07-10T06:02:17.235Z,97979.16
2023-07-10T06:04:44.015Z,97978.34
2023-07-10T06:07:10.496Z,97976.34
2023-07-10T06:09:37.010Z,97975.72
2023-07-10T06:12:03.789Z,97966.94
2023-07-10T06:14:30.339Z,97966.72
2023-07-10T06:16:56.844Z,97976.88
2023-07-10T06:19:23.370Z,97967.22
2023-07-10T06:21:50.047Z,97965.97
2023-07-10T06:24:16.571Z,97966.81
2023-07-10T06:26:43.078Z,97970.16
2023-07-10T06:29:09.552Z,97963.56
2023-07-10T06:31:36.182Z,97965.03
2023-07-10T06:34:02.688Z,97964.69
2023-07-10T06:36:29.306Z,97974.88
2023-07-10T06:38:55.817Z,97969.00
2023-07-10T06:41:22.341Z,97972.03
2023-07-10T06:43:48.866Z,97983.00
2023-07-10T06:46:15.516Z,97978.44
2023-07-10T06:48:43.981Z,97970.19
2023-07-10T06:51:10.477Z,97973.81
2023-07-10T06:53:37.190Z,97969.25
2023-07-10T06:56:04.225Z,97969.91
2023-07-10T06:58:31.947Z,97971.03
2023-07-10T07:00:58.818Z,97969.25
2023-07-10T07:03:25.716Z,97959.56
2023-07-10T07:05:52.357Z,97963.63
2023-07-10T07:08:19.149Z,97969.97
2023-07-10T07:10:46.159Z,97968.22
2023-07-10T07:13:12.948Z,97964.47
2023-07-10T07:15:39.493Z,97958.06
2023-07-10T07:18:06.126Z,97957.78
2023-07-10T07:20:33.543Z,97966.13
2023-07-10T07:23:00.348Z,97951.69
2023-07-10T07:25:29.167Z,97952.47
2023-07-10T07:27:55.720Z,97948.38
2023-07-10T07:30:22.262Z,97947.28
2023-07-10T07:32:49.022Z,97943.97
2023-07-10T07:35:15.703Z,97936.19
2023-07-10T07:37:42.311Z,97940.06
2023-07-10T07:40:10.892Z,97939.78
2023-07-10T07:42:37.491Z,97947.25
2023-07-10T07:45:04.528Z,97948.69
2023-07-10T07:47:31.350Z,97938.09
2023-07-10T07:49:57.963Z,97935.50
2023-07-10T07:52:24.669Z,97937.41
2023-07-10T07:54:52.277Z,97931.63
2023-07-10T07:57:18.817Z,97938.34
2023-07-10T07:59:45.359Z,97940.47
2023-07-10T08:02:11.890Z,97937.50
2023-07-10T08:04:38.597Z,97935.97
2023-07-10T08:07:05.350Z,97939.78
2023-07-10T08:09:31.875Z,97943.09
2023-07-10T08:11:58.458Z,97936.34
2023-07-10T08:14:25.000Z,97942.91
2023-07-10T08:16:51.519Z,97936.22
2023-07-10T08:19:18.230Z,97931.66
2023-07-10T08:21:44.986Z,97942.19
2023-07-10T08:24:11.578Z,97935.38
2023-07-10T08:26:38.084Z,97938.28
2023-07-10T08:29:24.410Z,97925.94
2023-07-10T08:31:52.686Z,97929.69
2023-07-10T08:34:19.265Z,97932.28
2023-07-10T08:36:46.980Z,97929.75
2023-07-10T08:39:13.564Z,97924.53
2023-07-10T08:41:40.841Z,97923.31
2023-07-10T08:44:10.704Z,97920.78
2023-07-10T08:46:37.493Z,97921.22
2023-07-10T08:49:22.388Z,97914.28
2023-07-10T08:52:04.033Z,97908.84
2023-07-10T08:54:30.990Z,97912.88
2023-07-10T08:57:04.460Z,97912.38
2023-07-10T08:59:45.334Z,97904.28
2023-07-10T09:02:17.901Z,97913.84
2023-07-10T09:04:46.077Z,97911.81
2023-07-10T09:07:13.552Z,97904.06
2023-07-10T09:09:42.984Z,97910.97
2023-07-10T09:12:12.616Z,97906.97
2023-07-10T09:14:57.700Z,97902.75
2023-07-10T09:17:31.914Z,97906.97
2023-07-10T09:20:02.244Z,97902.91
2023-07-10T09:22:29.076Z,97912.19
2023-07-10T09:24:55.655Z,97909.16
2023-07-10T09:27:22.310Z,97915.38
2023-07-10T09:29:51.434Z,97913.22
2023-07-10T09:32:19.278Z,97904.56
2023-07-10T09:34:50.627Z,97906.69
2023-07-10T09:37:18.914Z,97894.41
2023-07-10T09:39:45.588Z,97889.66
2023-07-10T09:42:20.225Z,97889.03
2023-07-10T09:44:50.544Z,97899.66
2023-07-10T09:47:17.989Z,97893.31
2023-07-10T09:49:56.190Z,97890.34
2023-07-10T09:52:27.668Z,97895.97
2023-07-10T09:55:09.718Z,97891.72
2023-07-10T09:57:48.512Z,97899.63
2023-07-10T10:00:19.537Z,97882.13
2023-07-10T10:02:53.781Z,97882.47
2023-07-10T10:05:20.979Z,97883.63
2023-07-10T10:07:49.222Z,97883.81
2023-07-10T10:10:20.906Z,97872.41
2023-07-10T10:12:59.858Z,97871.50
2023-07-10T10:15:31.252Z,97871.22
2023-07-10T10:18:03.075Z,97878.72
2023-07-10T10:20:32.091Z,97873.56
2023-07-10T10:22:59.199Z,97868.22
2023-07-10T10:25:35.099Z,97875.50
2023-07-10T10:28:22.597Z,97855.38
2023-07-10T10:30:58.230Z,97856.09
2023-07-10T10:33:25.766Z,97855.66
2023-07-10T10:36:02.083Z,97855.84
2023-07-10T10:38:28.915Z,97856.00
2023-07-10T10:41:07.671Z,97848.31
2023-07-10T10:43:40.079Z,97850.53
2023-07-10T10:46:13.140Z,97853.28
2023-07-10T10:48:47.693Z,97852.13
2023-07-10T10:51:14.211Z,97843.41
2023-07-10T10:53:40.785Z,97846.97
2023-07-10T10:56:15.983Z,97845.03
2023-07-10T10:59:06.981Z,97844.41
2023-07-10T11:01:33.566Z,97842.66
2023-07-10T11:04:10.360Z,97833.94
2023-07-10T11:06:45.953Z,97826.97
2023-07-10T11:09:17.687Z,97826.50
2023-07-10T11:11:44.490Z,97819.84
2023-07-10T11:14:12.219Z,97818.50
2023-07-10T11:16:39.400Z,97815.50
2023-07-10T11:19:06.416Z,97821.94
2023-07-10T11:21:33.741Z,97814.00
2023-07-10T11:24:14.051Z,97809.91
2023-07-10T11:26:40.983Z,97813.38
2023-07-10T11:29:31.487Z,97811.16
2023-07-10T11:32:02.353Z,97805.97
2023-07-10T11:34:31.898Z,97797.59
2023-07-10T11:36:59.366Z,97796.72
2023-07-10T11:39:33.780Z,97790.44
2023-07-10T11:42:03.460Z,97800.41
2023-07-10T11:44:30.250Z,97792.53
2023-07-10T11:47:06.218Z,97788.19
2023-07-10T11:49:36.581Z,97790.88
2023-07-10T11:52:09.262Z,97790.81
2023-07-10T11:54:37.462Z,97786.63
2023-07-10T11:57:09.961Z,97775.63
2023-07-10T11:59:43.357Z,97784.00
2023-07-10T12:02:24.627Z,97783.28
2023-07-10T12:04:51.228Z,97776.44
2023-07-10T12:07:18.047Z,97787.44
2023-07-10T12:09:49.486Z,97776.88
2023-07-10T12:12:16.016Z,97778.50
2023-07-10T12:14:42.611Z,97779.56
2023-07-10T12:19:44.613Z,97762.00
2023-07-10T12:22:25.165Z,97767.00
2023-07-10T12:24:53.807Z,97759.34
2023-07-10T12:28:17.917Z,97760.88
2023-07-10T12:30:15.252Z,97760.34
2023-07-10T12:32:41.942Z,97758.75
2023-07-10T12:35:16.413Z,97756.72
2023-07-10T12:37:49.021Z,97751.88
2023-07-10T12:40:16.839Z,97745.97
2023-07-10T12:42:44.404Z,97748.44
2023-07-10T12:45:27.379Z,97747.00
2023-07-10T12:48:07.102Z,97753.81
2023-07-10T12:50:36.363Z,97758.59
2023-07-10T12:53:06.833Z,97749.47
2023-07-10T12:55:33.696Z,97742.63
2023-07-10T12:58:02.396Z,97748.13
2023-07-10T13:00:43.088Z,97742.53
2023-07-10T13:03:40.878Z,97740.66
2023-07-10T13:06:08.556Z,97744.78
2023-07-10T13:08:39.644Z,97747.25
2023-07-10T13:11:06.665Z,97736.00
2023-07-10T13:13:36.036Z,97740.91
2023-07-10T13:16:04.020Z,97730.84
2023-07-10T13:18:32.843Z,97727.81
2023-07-10T13:20:59.497Z,97717.69
2023-07-10T13:23:26.083Z,97712.16
2023-07-10T13:25:53.885Z,97708.53
2023-07-10T13:28:22.457Z,97709.63
2023-07-10T13:30:51.062Z,97697.63
2023-07-10T13:33:19.069Z,97699.44
2023-07-10T13:35:47.192Z,97696.25
2023-07-10T13:38:13.820Z,97703.03
2023-07-10T13:40:40.434Z,97701.56
2023-07-10T13:43:18.065Z,97704.31
2023-07-10T13:45:45.470Z,97700.88
2023-07-10T13:48:16.042Z,97708.53
2023-07-10T13:50:44.377Z,97703.13
2023-07-10T13:53:12.252Z,97713.97
2023-07-10T13:55:39.293Z,97708.91
2023-07-10T13:58:15.635Z,97703.53
2023-07-10T14:00:42.882Z,97708.13
2023-07-10T14:03:13.384Z,97708.44
2023-07-10T14:05:40.711Z,97709.13
2023-07-10T14:08:17.600Z,97710.28
2023-07-10T14:10:44.224Z,97706.47
2023-07-10T14:13:11.612Z,97708.72
2023-07-10T14:15:39.716Z,97715.59
2023-07-10T14:18:16.884Z,97714.22
2023-07-10T14:20:43.875Z,97708.78
2023-07-10T14:23:14.988Z,97706.41
2023-07-10T14:25:41.876Z,97704.28
2023-07-10T14:28:16.217Z,97709.63
2023-07-10T14:30:44.044Z,97719.78
2023-07-10T14:33:11.054Z,97747.34
2023-07-10T14:35:38.335Z,97828.63
2023-07-10T14:38:30.858Z,97829.50
2023-07-10T14:40:57.725Z,97778.63
2023-07-10T14:43:24.368Z,97803.16
2023-07-10T14:45:52.432Z,97813.19
2023-07-10T14:48:21.444Z,97818.81
2023-07-10T14:50:49.487Z,97813.91
2023-07-10T14:53:17.558Z,97803.47
2023-07-10T14:55:44.795Z,97769.06
2023-07-10T14:58:15.076Z,97765.25
2023-07-10T15:00:41.934Z,97753.63
2023-07-10T15:03:10.239Z,97730.72
2023-07-10T15:05:37.115Z,97741.09
2023-07-10T15:08:04.040Z,97741.00
2023-07-10T15:10:31.001Z,97733.34
2023-07-10T15:13:01.383Z,97730.59
2023-07-10T15:15:30.950Z,97734.16
2023-07-10T15:17:57.519Z,97751.25
2023-07-10T15:20:24.132Z,97757.81
2023-07-10T15:22:50.880Z,97756.56
2023-07-10T15:25:22.898Z,97746.50
2023-07-10T15:27:53.259Z,97760.16
2023-07-10T15:30:21.136Z,97774.41
2023-07-10T15:32:48.467Z,97755.44
2023-07-10T15:35:19.360Z,97745.97
2023-07-10T15:37:46.320Z,97752.03
2023-07-10T15:40:17.284Z,97743.88
2023-07-10T15:42:46.581Z,97739.88
2023-07-10T15:45:15.448Z,97749.44
2023-07-10T15:47:43.179Z,97756.47
2023-07-10T15:50:11.902Z,97746.75
2023-07-10T15:52:40.436Z,97743.91
2023-07-10T15:55:18.693Z,97744.31
2023-07-10T15:57:46.172Z,97736.09
2023-07-10T16:00:16.643Z,97723.50
2023-07-10T16:02:43.400Z,97722.78
2023-07-10T16:05:30.249Z,97714.50
2023-07-10T16:07:57.535Z,97707.94
2023-07-10T16:10:24.862Z,97703.56
2023-07-10T16:12:51.926Z,97695.72
2023-07-10T16:15:20.231Z,97699.19
2023-07-10T16:17:47.897Z,97703.25
2023-07-10T16:20:18.934Z,97705.16
2023-07-10T16:22:48.654Z,97702.44
2023-07-10T16:25:15.979Z,97701.66
2023-07-10T16:27:43.343Z,97699.94
2023-07-10T16:30:13.600Z,97699.47
2023-07-10T16:32:40.103Z,97704.75
2023-07-10T16:35:13.929Z,97689.31
2023-07-10T16:37:40.517Z,97684.53
2023-07-10T16:40:07.273Z,97686.09
2023-07-10T16:42:35.700Z,97681.06
2023-07-10T16:45:04.329Z,97680.66
2023-07-10T16:47:31.575Z,97688.00
2023-07-10T16:49:58.336Z,97687.53
2023-07-10T16:52:25.250Z,97682.84
2023-07-10T16:54:52.038Z,97677.22
2023-07-10T16:57:18.915Z,97676.56
2023-07-10T16:59:45.742Z,97671.47
2023-07-10T17:02:23.767Z,97672.59
2023-07-10T17:04:53.829Z,97661.00
2023-07-10T17:07:20.425Z,97661.13
2023-07-10T17:09:46.991Z,97674.41
2023-07-10T17:12:13.607Z,97670.78
2023-07-10T17:14:40.227Z,97664.88
2023-07-10T17:17:21.160Z,97671.13
2023-07-10T17:19:48.574Z,97661.63
2023-07-10T17:22:21.001Z,97665.75
2023-07-10T17:24:47.584Z,97661.91
2023-07-10T17:27:14.110Z,97665.03
2023-07-10T17:29:40.690Z,97673.63
2023-07-10T17:32:14.177Z,97669.09
2023-07-10T17:34:40.723Z,97667.81
2023-07-10T17:37:11.224Z,97677.16
2023-07-10T17:39:37.765Z,97672.97
2023-07-10T17:42:04.683Z,97672.59
2023-07-10T17:44:34.256Z,97673.69
2023-07-10T17:47:00.910Z,97673.69
2023-07-10T17:49:30.561Z,97674.72
2023-07-10T17:51:58.619Z,97667.53
2023-07-10T17:54:30.263Z,97682.41
2023-07-10T17:56:57.542Z,97684.09
2023-07-10T17:59:24.101Z,97677.09
2023-07-10T18:01:50.925Z,97681.06
2023-07-10T18:04:22.352Z,97679.69
2023-07-10T18:06:49.509Z,97686.66
2023-07-10T18:09:20.555Z,97681.06
2023-07-10T18:11:47.174Z,97679.75
2023-07-10T18:14:14.580Z,97695.31
2023-07-10T18:16:41.717Z,97686.41
2023-07-10T18:19:12.831Z,97687.34
2023-07-10T18:21:39.619Z,97692.34
2023-07-10T18:24:10.979Z,97699.88
2023-07-10T18:26:37.463Z,97694.72
2023-07-10T18:29:05.880Z,97691.19
2023-07-10T18:31:32.502Z,97692.75
2023-07-10T18:33:59.084Z,97695.81
2023-07-10T18:36:26.401Z,97704.28
2023-07-10T18:38:52.906Z,97706.94
2023-07-10T18:41:23.957Z,97710.41
2023-07-10T18:43:51.420Z,97706.53
2023-07-10T18:46:19.585Z,97706.84
2023-07-10T18:48:46.190Z,97707.97
2023-07-10T18:51:15.672Z,97723.56
2023-07-10T18:53:42.635Z,97716.75
2023-07-10T18:56:10.050Z,97722.41
2023-07-10T18:58:36.591Z,97727.22
2023-07-10T19:01:04.227Z,97726.97
2023-07-10T19:03:31.455Z,97742.38
2023-07-10T19:05:58.062Z,97736.91
2023-07-10T19:08:25.940Z,97739.31
2023-07-10T19:10:53.220Z,97743.16
2023-07-10T19:13:21.802Z,97741.47
2023-07-10T19:15:49.968Z,97746.50
2023-07-10T19:18:18.715Z,97756.47
2023-07-10T19:20:45.302Z,97746.63
2023-07-10T19:23:19.147Z,97754.91
2023-07-10T19:25:46.608Z,97761.72
2023-07-10T19:28:15.009Z,97760.53
2023-07-10T19:30:44.257Z,97757.38
2023-07-10T19:33:16.673Z,97765.69
2023-07-10T19:35:43.172Z,97757.03
2023-07-10T19:38:23.543Z,97769.75
2023-07-10T19:40:51.654Z,97777.53
2023-07-10T19:43:18.215Z,97789.16
2023-07-10T19:45:45.867Z,97793.09
2023-07-10T19:48:17.389Z,97793.72
2023-07-10T19:50:44.961Z,97798.41
2023-07-10T19:53:19.127Z,97803.03
2023-07-10T19:55:46.380Z,97791.53
2023-07-10T19:58:14.253Z,97791.28
2023-07-10T20:00:41.192Z,97792.72
2023-07-10T20:03:21.592Z,97798.88
2023-07-10T20:05:48.808Z,97806.94
2023-07-10T20:08:15.351Z,97804.94
2023-07-10T20:10:41.949Z,97799.53
2023-07-10T20:13:15.679Z,97802.00
2023-07-10T20:15:43.759Z,97812.47
2023-07-10T20:18:16.193Z,97817.25
2023-07-10T20:20:42.768Z,97813.91
2023-07-10T20:23:13.009Z,97813.44
2023-07-10T20:25:43.168Z,97823.69
2023-07-10T20:28:29.903Z,97828.00
2023-07-10T20:30:56.456Z,97832.09
2023-07-10T20:33:24.274Z,97837.94
2023-07-10T20:35:50.784Z,97828.09
2023-07-10T20:38:24.103Z,97828.59
2023-07-10T20:40:51.010Z,97835.50
2023-07-10T20:43:18.731Z,97825.88
2023-07-10T20:45:46.497Z,97827.69
2023-07-10T20:48:17.304Z,97822.69
2023-07-10T20:50:44.159Z,97824.56
2023-07-10T20:53:14.192Z,97825.41
2023-07-10T20:55:41.248Z,97824.56
2023-07-10T20:58:21.999Z,97825.31
2023-07-10T21:00:48.840Z,97817.63
2023-07-10T21:03:15.386Z,97817.19
2023-07-10T21:05:42.340Z,97818.34
2023-07-10T21:08:25.494Z,97820.81
2023-07-10T21:10:54.692Z,97818.75
2023-07-10T21:13:23.812Z,97820.44
2023-07-10T21:15:50.338Z,97813.59
2023-07-10T21:18:23.675Z,97805.34
2023-07-10T21:20:50.381Z,97807.09
2023-07-10T21:23:19.832Z,97811.19
2023-07-10T21:25:46.347Z,97817.19
2023-07-10T21:28:23.930Z,97819.53
2023-07-10T21:30:50.614Z,97814.47
2023-07-10T21:33:22.365Z,97807.28
2023-07-10T21:35:50.119Z,97814.94
2023-07-10T21:38:16.760Z,97817.69
2023-07-10T21:40:44.459Z,97815.22
2023-07-10T21:43:15.921Z,97815.97
2023-07-10T21:45:42.449Z,97821.28
2023-07-10T21:48:21.613Z,97820.06
2023-07-10T21:50:49.221Z,97823.88
2023-07-10T21:53:16.082Z,97826.69
2023-07-10T21:55:42.571Z,97830.22
2023-07-10T21:58:15.147Z,97832.28
2023-07-10T22:00:41.668Z,97828.53
2023-07-10T22:03:20.482Z,97834.69
2023-07-10T22:05:47.078Z,97842.91
2023-07-10T22:08:13.594Z,97847.09
2023-07-10T22:10:40.188Z,97832.84
2023-07-10T22:13:13.470Z,97831.38
2023-07-10T22:15:40.303Z,97832.22
2023-07-10T22:18:13.812Z,97832.53
2023-07-10T22:20:41.178Z,97828.69
2023-07-10T22:23:08.476Z,97826.56
2023-07-10T22:25:35.008Z,97820.31
2023-07-10T22:28:01.588Z,97823.06
2023-07-10T22:30:28.204Z,97830.84
2023-07-10T22:32:54.756Z,97822.97
2023-07-10T22:35:21.994Z,97831.28
2023-07-10T22:37:49.038Z,97829.91
2023-07-10T22:40:15.608Z,97827.00
2023-07-10T22:42:42.762Z,97827.63
2023-07-10T22:45:14.814Z,97830.19
2023-07-10T22:47:41.401Z,97828.53
2023-07-10T22:50:11.766Z,97817.56
2023-07-10T22:52:39.380Z,97821.78
2023-07-10T22:55:06.589Z,97833.38
2023-07-10T22:57:33.172Z,97827.81
2023-07-10T22:59:59.649Z,97820.50
2023-07-10T23:02:26.249Z,97818.88
2023-07-10T23:04:53.046Z,97818.53
2023-07-10T23:07:19.814Z,97814.72
2023-07-10T23:09:46.320Z,97811.97
2023-07-10T23:12:13.410Z,97803.41
2023-07-10T23:14:39.888Z,97804.47
2023-07-10T23:17:06.822Z,97808.09
2023-07-10T23:19:33.307Z,97813.06
2023-07-10T23:21:59.796Z,97800.31
2023-07-10T23:24:28.420Z,97807.19
2023-07-10T23:26:57.738Z,97800.16
2023-07-10T23:29:24.240Z,97786.03
2023-07-10T23:31:50.755Z,97793.44
2023-07-10T23:34:17.466Z,97792.13
2023-07-10T23:36:46.826Z,97778.75
2023-07-10T23:39:13.520Z,97774.97
2023-07-10T23:41:40.138Z,97777.41
2023-07-10T23:44:07.121Z,97769.34
2023-07-10T23:46:34.027Z,97766.09
2023-07-10T23:49:00.544Z,97759.81
2023-07-10T23:51:27.061Z,97767.78
2023-07-10T23:53:53.572Z,97764.41
2023-07-10T23:56:20.164Z,97763.00
2023-07-10T23:58:46.728Z,97751.53
